createdAt,value
2022-07-29T00:04:07.192Z,24.90
2022-07-29T00:19:08.713Z,24.90
2022-07-29T00:34:10.189Z,24.90
2022-07-29T00:49:11.726Z,24.90
2022-07-29T01:04:13.668Z,24.80
2022-07-29T01:19:16.046Z,24.80
2022-07-29T01:34:18.047Z,24.70
2022-07-29T01:49:19.953Z,24.70
2022-07-29T02:04:29.076Z,24.70
2022-07-29T02:19:31.557Z,24.60
2022-07-29T02:34:33.085Z,24.60
2022-07-29T02:49:34.592Z,24.50
2022-07-29T03:04:36.114Z,24.50
2022-07-29T03:19:37.633Z,24.50
2022-07-29T03:34:39.184Z,24.40
2022-07-29T03:49:40.697Z,24.40
2022-07-29T04:04:42.216Z,24.40
2022-07-29T04:19:43.698Z,24.40
2022-07-29T04:34:45.192Z,24.40
2022-07-29T04:49:46.684Z,24.30
2022-07-29T05:04:48.167Z,24.30
2022-07-29T05:19:49.801Z,24.30
2022-07-29T05:34:51.911Z,24.30
2022-07-29T05:49:53.501Z,24.30
2022-07-29T06:04:55.052Z,24.30
2022-07-29T06:19:56.546Z,24.30
2022-07-29T06:35:24.437Z,24.30
2022-07-29T06:50:19.499Z,24.30
2022-07-29T07:05:21.001Z,24.30
2022-07-29T07:20:22.483Z,24.40
2022-07-29T07:35:26.898Z,24.50
2022-07-29T07:50:28.383Z,24.50
2022-07-29T08:05:30.030Z,24.50
2022-07-29T08:20:31.520Z,24.30
2022-07-29T08:35:35.446Z,24.30
2022-07-29T08:50:37.984Z,24.30
2022-07-29T09:05:42.026Z,24.30
2022-07-29T09:20:45.304Z,24.40
2022-07-29T09:35:56.419Z,24.60
2022-07-29T09:50:58.762Z,24.60
2022-07-29T10:06:00.259Z,24.90
2022-07-29T10:21:01.751Z,25.20
2022-07-29T10:36:03.247Z,25.50
2022-07-29T10:51:04.731Z,25.80
2022-07-29T11:06:08.793Z,26.20
2022-07-29T11:21:11.511Z,26.30
2022-07-29T11:36:16.582Z,26.50
2022-07-29T11:51:18.543Z,26.60
2022-07-29T12:06:20.953Z,26.70
2022-07-29T12:21:25.576Z,26.80
2022-07-29T12:36:27.378Z,27.00
2022-07-29T12:51:28.866Z,27.10
2022-07-29T13:06:30.771Z,27.20
2022-07-29T13:21:32.254Z,27.40
2022-07-29T13:36:33.755Z,27.60
2022-07-29T13:51:35.247Z,27.70
2022-07-29T14:06:36.733Z,27.70
2022-07-29T14:21:41.997Z,27.70
2022-07-29T14:36:43.473Z,27.50
2022-07-29T14:51:44.954Z,27.50
2022-07-29T15:06:46.441Z,27.40
2022-07-29T15:21:59.606Z,27.30
2022-07-29T15:37:01.404Z,27.30
2022-07-29T15:52:02.885Z,27.20
2022-07-29T16:07:04.362Z,27.10
2022-07-29T16:22:05.861Z,27.10
2022-07-29T16:37:07.352Z,27.00
2022-07-29T16:52:08.846Z,26.90
2022-07-29T17:07:10.329Z,26.70
2022-07-29T17:22:18.796Z,26.60
2022-07-29T17:37:20.683Z,26.50
2022-07-29T17:52:22.177Z,26.30
2022-07-29T18:07:23.666Z,26.20
2022-07-29T18:22:25.151Z,26.20
2022-07-29T18:38:00.871Z,26.00
2022-07-29T18:52:48.111Z,25.90
2022-07-29T19:07:49.646Z,25.80
2022-07-29T19:22:51.131Z,25.80
2022-07-29T19:37:52.618Z,25.70
2022-07-29T19:52:54.101Z,25.70
2022-07-29T20:07:55.581Z,25.60
2022-07-29T20:22:57.070Z,25.60
2022-07-29T20:37:58.554Z,25.50
2022-07-29T20:53:01.353Z,25.40
2022-07-29T21:08:02.838Z,25.40
2022-07-29T21:23:04.323Z,25.30
2022-07-29T21:38:13.313Z,25.20
2022-07-29T21:53:15.970Z,25.20
2022-07-29T22:08:17.528Z,25.10
2022-07-29T22:23:19.027Z,25.10
2022-07-29T22:38:20.509Z,25.10
2022-07-29T22:53:21.994Z,25.10
2022-07-29T23:08:23.473Z,25.00
2022-07-29T23:23:24.954Z,24.90
2022-07-29T23:38:33.708Z,24.80
2022-07-29T23:53:35.270Z,24.80
